Terminal Aerodrome Forecast
Issued by NWS Binghamton, NY

Home | Current Version | Previous Version | Text Only | Print | Product List | Glossary On
Versions: 1 2 3 4 5 6 7 8 9 10 11 12 13 14 15 16 17
000
FTUS41 KBGM 080215 AAA
TAFSYR
TAF AMD
KSYR 080215Z 0802/0824 21010KT P6SM SCT060
      TEMPO 0802/0804 SHRA OVC040
     FM080400 25008KT P6SM SCT025 BKN040
      TEMPO 0804/0806 5SM -SHRA BR OVC025
     FM080600 30008KT P6SM OVC025
      TEMPO 0808/0812 OVC015
     FM081400 33008KT P6SM SCT040=

USA.gov is the U.S. government's official web portal to all federal, state and local government web resources and services.